Time;durP1;ratioP1;P1;durP2;ratioP2;P2;SDS_P1;SDS_P2;PMS_P1;PMS_P2;Temp;Humidity;BMP_temperature;BMP_pressure;BME280_temperature;BME280_humidity;BME280_pressure;Samples;Min_cycle;Max_cycle;Signal;HPM_P1;HPM_P2
2023/03/03 00:03:50;;;;;;;27.02;12.30;;;4.60;99.90;;;;;;10161881;28;20024;-68
2023/03/03 00:08:40;;;;;;;35.08;16.40;;;4.60;99.90;;;;;;10141887;28;20103;-68
2023/03/03 00:13:36;;;;;;;31.75;12.20;;;4.60;99.90;;;;;;10139020;28;20107;-69
2023/03/03 00:18:34;;;;;;;27.30;13.20;;;4.60;99.90;;;;;;10173456;28;20274;-69
2023/03/03 00:23:36;;;;;;;33.10;15.02;;;4.60;99.90;;;;;;10141054;28;20529;-67
2023/03/03 00:28:43;;;;;;;38.10;16.60;;;4.60;99.90;;;;;;10166669;28;20016;-67
2023/03/03 00:33:38;;;;;;;;;;;4.50;99.90;;;;;;10176052;28;20462;-66
2023/03/03 00:38:33;;;;;;;30.25;13.63;;;4.40;99.90;;;;;;10142666;28;19962;-68
2023/03/03 00:43:34;;;;;;;34.30;16.10;;;4.40;99.90;;;;;;10172543;28;20032;-68
2023/03/03 00:48:24;;;;;;;41.08;16.33;;;4.40;99.90;;;;;;10146917;28;20229;-67
2023/03/03 00:53:17;;;;;;;28.10;14.05;;;4.30;99.90;;;;;;10144970;28;20108;-68
2023/03/03 00:58:09;;;;;;;24.67;13.70;;;4.30;99.90;;;;;;10172142;28;20098;-69
2023/03/03 01:03:06;;;;;;;29.52;13.27;;;4.30;99.90;;;;;;10160562;28;20059;-68
2023/03/03 01:07:57;;;;;;;33.92;15.52;;;4.30;99.90;;;;;;10177671;28;20107;-68
2023/03/03 01:12:48;;;;;;;32.90;13.43;;;4.30;99.90;;;;;;10155805;28;20070;-69
2023/03/03 01:17:39;;;;;;;31.65;15.30;;;4.20;99.90;;;;;;10158962;28;20521;-69
2023/03/03 01:22:30;;;;;;;27.08;13.70;;;4.20;99.90;;;;;;10165511;28;20025;-69
2023/03/03 01:27:20;;;;;;;28.27;12.82;;;4.10;99.90;;;;;;10142704;28;20032;-68
2023/03/03 01:32:11;;;;;;;29.45;13.38;;;4.00;99.90;;;;;;10158104;28;20163;-68
2023/03/03 01:37:02;;;;;;;29.65;13.23;;;4.00;99.90;;;;;;10143953;28;20048;-69
2023/03/03 01:41:54;;;;;;;29.30;13.32;;;4.10;99.90;;;;;;10144183;28;20086;-69
2023/03/03 01:47:04;;;;;;;30.13;13.93;;;4.00;99.90;;;;;;10161757;28;20049;-69
2023/03/03 01:51:59;;;;;;;31.83;14.05;;;3.90;99.90;;;;;;10143717;28;20059;-68
2023/03/03 01:56:54;;;;;;;26.38;13.13;;;3.90;99.90;;;;;;10164383;28;20024;-68
2023/03/03 02:01:47;;;;;;;27.30;11.50;;;3.90;99.90;;;;;;10169205;28;20182;-69
2023/03/03 02:06:43;;;;;;;29.55;13.15;;;3.70;99.90;;;;;;10157504;28;20383;-68
2023/03/03 02:11:36;;;;;;;30.27;13.43;;;3.70;99.90;;;;;;10141885;28;20029;-68
2023/03/03 02:16:27;;;;;;;28.88;12.77;;;3.60;99.90;;;;;;10143116;28;20025;-68
2023/03/03 02:21:23;;;;;;;27.88;11.40;;;3.60;99.90;;;;;;10172969;28;20040;-68
2023/03/03 02:26:25;;;;;;;30.25;12.98;;;3.60;99.90;;;;;;10148705;28;20032;-68
2023/03/03 02:31:19;;;;;;;21.17;10.48;;;3.70;99.90;;;;;;10154401;28;20461;-67
2023/03/03 02:36:19;;;;;;;24.75;10.98;;;3.70;99.90;;;;;;10142275;28;20087;-67
2023/03/03 02:41:52;;;;;;;22.20;12.02;;;3.60;99.90;;;;;;10162369;28;20119;-68
2023/03/03 02:46:46;;;;;;;25.42;11.23;;;3.60;99.90;;;;;;10141541;28;20068;-67
2023/03/03 02:51:37;;;;;;;24.48;11.15;;;3.50;99.90;;;;;;10140506;28;20055;-69
2023/03/03 02:56:28;;;;;;;25.58;11.35;;;3.50;99.90;;;;;;10147276;28;20020;-68
2023/03/03 03:01:19;;;;;;;23.92;12.10;;;3.40;99.90;;;;;;10150668;28;20036;-69
2023/03/03 03:06:10;;;;;;;27.65;10.73;;;3.40;99.90;;;;;;10150544;28;20498;-68
2023/03/03 03:11:01;;;;;;;22.83;10.57;;;3.40;99.90;;;;;;10144707;28;20032;-67
2023/03/03 03:15:52;;;;;;;26.58;11.48;;;3.50;99.90;;;;;;10140170;28;20077;-66
2023/03/03 03:20:43;;;;;;;26.33;10.93;;;3.40;99.90;;;;;;10167861;28;20032;-68
2023/03/03 03:25:34;;;;;;;24.30;11.48;;;3.40;99.90;;;;;;10149166;28;20027;-68
2023/03/03 03:30:25;;;;;;;23.85;11.25;;;3.30;99.90;;;;;;10140065;28;20077;-67
2023/03/03 03:35:16;;;;;;;25.52;11.30;;;3.40;99.90;;;;;;10140392;28;20098;-69
2023/03/03 03:40:08;;;;;;;31.35;11.38;;;3.40;99.90;;;;;;10167327;28;20044;-68
2023/03/03 03:44:59;;;;;;;26.55;10.80;;;3.40;99.90;;;;;;10153358;28;20482;-68
2023/03/03 03:49:50;;;;;;;27.17;12.48;;;3.40;99.90;;;;;;10146091;28;20111;-69
2023/03/03 03:54:40;;;;;;;26.50;12.13;;;3.40;99.90;;;;;;10143128;28;20289;-68
2023/03/03 03:59:31;;;;;;;20.00;10.88;;;3.50;99.90;;;;;;10164420;28;20040;-67
2023/03/03 04:04:22;;;;;;;26.02;12.35;;;3.40;99.90;;;;;;10157530;28;20024;-67
2023/03/03 04:09:12;;;;;;;32.47;14.23;;;3.30;99.90;;;;;;10175110;28;20062;-68
2023/03/03 04:14:03;;;;;;;37.35;13.68;;;3.30;99.90;;;;;;10183613;28;20493;-68
2023/03/03 04:18:54;;;;;;;27.45;12.57;;;3.30;99.90;;;;;;10180790;28;20543;-67
2023/03/03 04:23:44;;;;;;;30.10;13.30;;;3.30;99.90;;;;;;10178327;28;20031;-67
2023/03/03 04:28:35;;;;;;;26.40;13.00;;;3.20;99.90;;;;;;10185417;28;20024;-68
2023/03/03 04:33:26;;;;;;;27.48;12.90;;;3.20;99.90;;;;;;10169728;28;20047;-67
2023/03/03 04:38:17;;;;;;;31.85;13.50;;;3.20;99.90;;;;;;10144520;28;20036;-67
2023/03/03 04:43:09;;;;;;;30.27;13.13;;;3.20;99.90;;;;;;10145833;28;20479;-67
2023/03/03 04:47:59;;;;;;;30.27;13.93;;;3.10;99.90;;;;;;10153732;28;20078;-68
2023/03/03 04:52:50;;;;;;;35.90;14.35;;;3.10;99.90;;;;;;10145477;28;20028;-67
2023/03/03 04:57:41;;;;;;;30.05;12.80;;;3.10;99.90;;;;;;10172526;28;20056;-68
2023/03/03 05:02:31;;;;;;;29.15;13.30;;;3.10;99.90;;;;;;10168706;28;20078;-67
2023/03/03 05:07:23;;;;;;;29.25;12.35;;;3.30;99.90;;;;;;10158048;28;20025;-67
2023/03/03 05:12:14;;;;;;;29.80;14.32;;;3.20;99.90;;;;;;10158871;28;20207;-67
2023/03/03 05:17:05;;;;;;;35.08;14.50;;;3.30;99.90;;;;;;10153070;28;20258;-67
2023/03/03 05:21:56;;;;;;;31.42;13.27;;;3.40;99.90;;;;;;10144848;28;20035;-67
2023/03/03 05:26:47;;;;;;;34.55;15.48;;;3.40;99.90;;;;;;10172887;28;20112;-67
2023/03/03 05:31:37;;;;;;;32.05;14.27;;;3.50;99.90;;;;;;10173002;28;20156;-67
2023/03/03 05:36:28;;;;;;;33.65;14.73;;;3.50;99.90;;;;;;10158867;28;20053;-67
2023/03/03 05:41:19;;;;;;;33.75;12.27;;;3.40;99.90;;;;;;10144164;28;20043;-65
2023/03/03 05:46:10;;;;;;;28.10;13.20;;;3.40;99.90;;;;;;10156262;28;20538;-67
2023/03/03 05:51:00;;;;;;;34.97;14.77;;;3.40;99.90;;;;;;10152795;28;20034;-66
2023/03/03 05:55:51;;;;;;;30.77;14.38;;;3.40;99.90;;;;;;10152759;28;20025;-65
2023/03/03 06:00:42;;;;;;;32.53;15.00;;;3.40;99.90;;;;;;10173646;28;20051;-65
2023/03/03 06:05:32;;;;;;;32.63;15.27;;;3.40;99.90;;;;;;10161824;28;20028;-67
2023/03/03 06:10:23;;;;;;;33.92;14.70;;;3.50;99.90;;;;;;10179557;28;20367;-67
2023/03/03 06:15:14;;;;;;;36.53;14.18;;;3.50;99.90;;;;;;10182690;28;20394;-66
2023/03/03 06:20:05;;;;;;;33.25;14.52;;;3.60;99.90;;;;;;10172918;28;20036;-66
2023/03/03 06:24:56;;;;;;;31.63;14.40;;;3.60;99.90;;;;;;10144011;28;20268;-66
2023/03/03 06:29:47;;;;;;;28.15;13.63;;;3.70;99.90;;;;;;10142065;28;20035;-65
2023/03/03 06:34:37;;;;;;;30.73;13.13;;;3.60;99.90;;;;;;10140904;28;20045;-66
2023/03/03 06:39:28;;;;;;;29.13;13.35;;;3.70;99.90;;;;;;10141239;28;20088;-65
2023/03/03 06:44:19;;;;;;;28.77;13.10;;;3.80;99.90;;;;;;10141495;28;20028;-65
2023/03/03 06:49:10;;;;;;;21.38;11.38;;;3.90;99.90;;;;;;10161246;28;20126;-65
2023/03/03 06:54:26;;;;;;;32.20;14.63;;;3.80;99.90;;;;;;10163036;28;20031;-64
2023/03/03 06:59:19;;;;;;;21.23;12.07;;;4.00;99.90;;;;;;10182696;28;20056;-66
2023/03/03 07:04:25;;;;;;;30.55;14.25;;;4.10;99.90;;;;;;10166307;28;20327;-66
2023/03/03 07:09:25;;;;;;;25.60;13.00;;;4.10;99.90;;;;;;10141518;28;20495;-65
2023/03/03 07:14:18;;;;;;;25.88;14.43;;;4.30;99.90;;;;;;10141176;28;20449;-67
2023/03/03 07:19:33;;;;;;;27.45;13.70;;;4.10;99.90;;;;;;10155111;28;20024;-68
2023/03/03 07:24:29;;;;;;;27.25;14.40;;;4.00;99.90;;;;;;10148698;28;20131;-67
2023/03/03 07:29:29;;;;;;;37.67;14.73;;;4.00;99.90;;;;;;10160274;28;20038;-64
2023/03/03 07:34:22;;;;;;;28.27;13.45;;;4.10;99.90;;;;;;10140655;28;20071;-66
2023/03/03 07:39:42;;;;;;;32.33;14.18;;;4.20;99.90;;;;;;10177824;28;20051;-64
2023/03/03 07:44:36;;;;;;;27.77;13.15;;;4.30;99.90;;;;;;10151730;28;20040;-65
2023/03/03 07:49:36;;;;;;;36.38;16.40;;;4.30;99.90;;;;;;10152822;28;20020;-66
2023/03/03 07:54:42;;;;;;;29.30;14.70;;;4.40;99.90;;;;;;10179065;28;20031;-66
2023/03/03 07:59:35;;;;;;;33.28;14.93;;;4.50;99.90;;;;;;10164267;28;20039;-65
2023/03/03 08:04:43;;;;;;;32.38;16.23;;;4.60;99.90;;;;;;10163189;28;20505;-65
2023/03/03 08:09:55;;;;;;;33.83;15.15;;;4.60;99.90;;;;;;10139430;28;20028;-64
2023/03/03 08:14:46;;;;;;;29.20;15.75;;;4.60;99.90;;;;;;10139679;28;20044;-65
2023/03/03 08:19:37;;;;;;;32.05;14.60;;;4.70;99.90;;;;;;10148954;28;20518;-64
2023/03/03 08:24:28;;;;;;;29.35;13.93;;;4.70;99.90;;;;;;10146354;28;20470;-63
2023/03/03 08:29:18;;;;;;;29.48;14.38;;;4.80;99.90;;;;;;10156915;28;20029;-63
2023/03/03 08:34:09;;;;;;;25.75;11.75;;;4.80;99.90;;;;;;10138802;28;20186;-64
2023/03/03 08:39:00;;;;;;;27.77;12.77;;;4.70;99.90;;;;;;10137922;28;20036;-64
2023/03/03 08:43:50;;;;;;;28.33;12.60;;;4.60;99.90;;;;;;10171803;28;20527;-65
2023/03/03 08:48:41;;;;;;;21.45;11.88;;;4.90;99.90;;;;;;10178953;28;20430;-64
2023/03/03 08:53:35;;;;;;;23.58;11.25;;;4.90;99.90;;;;;;10178683;28;20398;-64
2023/03/03 08:58:25;;;;;;;23.42;11.95;;;4.90;99.90;;;;;;10166170;28;20525;-65
2023/03/03 09:03:16;;;;;;;26.27;11.68;;;5.10;99.90;;;;;;10163386;28;20024;-66
2023/03/03 09:08:09;;;;;;;28.17;12.95;;;5.10;99.90;;;;;;10152145;28;20024;-66
2023/03/03 09:13:12;;;;;;;25.95;13.85;;;5.30;99.90;;;;;;10152298;28;20028;-64
2023/03/03 09:18:36;;;;;;;24.98;11.57;;;5.30;99.90;;;;;;10172306;28;20037;-63
2023/03/03 09:23:32;;;;;;;22.67;12.05;;;5.20;99.90;;;;;;10144880;28;20051;-66
2023/03/03 09:28:24;;;;;;;;;;;5.20;99.90;;;;;;10172181;28;20028;-67
2023/03/03 09:33:24;;;;;;;29.45;12.85;;;5.50;99.90;;;;;;10184242;28;19904;-65
2023/03/03 09:38:28;;;;;;;29.10;15.23;;;5.80;99.90;;;;;;10168703;28;20079;-68
2023/03/03 09:43:34;;;;;;;28.38;13.48;;;5.70;99.90;;;;;;10143997;28;20023;-69
2023/03/03 09:48:31;;;;;;;25.92;14.35;;;5.90;99.90;;;;;;10143310;28;20156;-67
2023/03/03 09:53:30;;;;;;;28.65;14.63;;;5.90;99.90;;;;;;10143636;28;20048;-65
2023/03/03 09:58:45;;;;;;;27.60;12.75;;;6.00;99.90;;;;;;10169663;28;20166;-69
2023/03/03 10:03:46;;;;;;;27.10;12.67;;;6.20;99.90;;;;;;10162942;28;20103;-67
2023/03/03 10:08:47;;;;;;;25.42;12.60;;;6.20;99.90;;;;;;10145464;28;20263;-66
2023/03/03 10:13:55;;;;;;;24.48;12.77;;;6.30;99.90;;;;;;10141505;28;20036;-66
2023/03/03 10:19:09;;;;;;;27.48;13.45;;;6.30;99.90;;;;;;10147672;28;20057;-67
2023/03/03 10:24:29;;;;;;;24.25;12.50;;;6.40;99.90;;;;;;10142026;28;20025;-65
2023/03/03 10:29:36;;;;;;;24.20;12.93;;;6.50;99.90;;;;;;10141613;28;20043;-65
2023/03/03 10:34:46;;;;;;;26.27;13.80;;;6.50;99.90;;;;;;10153420;28;20080;-65
2023/03/03 10:40:01;;;;;;;28.73;13.18;;;6.60;99.90;;;;;;10141388;28;20051;-65
2023/03/03 10:45:10;;;;;;;21.77;11.93;;;6.90;99.90;;;;;;10170552;28;20020;-65
2023/03/03 10:50:16;;;;;;;26.08;12.57;;;6.80;99.90;;;;;;10181859;28;20158;-66
2023/03/03 10:55:28;;;;;;;25.40;12.90;;;6.70;99.90;;;;;;10181301;28;20277;-66
2023/03/03 11:00:28;;;;;;;31.77;13.68;;;6.80;99.90;;;;;;10157678;28;20412;-65
2023/03/03 11:05:40;;;;;;;28.85;13.25;;;6.80;99.90;;;;;;10165110;28;20542;-66
2023/03/03 11:10:55;;;;;;;21.25;12.65;;;6.80;99.90;;;;;;10141032;28;20501;-65
2023/03/03 11:15:56;;;;;;;23.38;13.48;;;7.20;99.90;;;;;;10169509;28;20032;-67
2023/03/03 11:20:56;;;;;;;20.02;10.90;;;7.30;99.90;;;;;;10142244;28;20043;-66
2023/03/03 11:25:53;;;;;;;20.85;11.00;;;7.40;99.90;;;;;;10140231;28;20021;-65
2023/03/03 11:31:12;;;;;;;23.85;11.95;;;7.30;99.90;;;;;;10156954;28;20024;-66
2023/03/03 11:36:36;;;;;;;19.23;11.40;;;7.30;99.90;;;;;;10138387;28;20396;-65
2023/03/03 11:41:35;;;;;;;23.27;11.23;;;7.40;99.90;;;;;;10140348;28;20438;-65
2023/03/03 11:46:39;;;;;;;26.60;12.20;;;7.40;99.90;;;;;;10167215;28;20713;-65
2023/03/03 11:51:33;;;;;;;25.77;12.27;;;7.50;99.90;;;;;;10179593;28;20027;-67
2023/03/03 11:56:26;;;;;;;21.80;11.35;;;7.70;99.90;;;;;;10170660;28;20021;-66
2023/03/03 12:01:40;;;;;;;28.27;13.70;;;7.90;99.90;;;;;;10165917;28;20063;-65
2023/03/03 12:06:31;;;;;;;21.63;10.95;;;8.00;99.90;;;;;;10165983;28;20020;-67
2023/03/03 12:11:39;;;;;;;26.13;12.23;;;7.90;99.90;;;;;;10146514;28;20404;-65
2023/03/03 12:16:55;;;;;;;22.48;11.38;;;8.10;99.90;;;;;;10145277;28;20102;-65
2023/03/03 12:21:45;;;;;;;26.30;13.73;;;8.30;99.90;;;;;;10139107;28;20037;-65
2023/03/03 12:26:49;;;;;;;24.45;12.68;;;8.50;99.90;;;;;;10152984;28;20048;-65
2023/03/03 12:32:09;;;;;;;29.90;14.35;;;8.70;99.90;;;;;;10159810;28;20478;-64
2023/03/03 12:37:06;;;;;;;30.90;14.27;;;9.00;99.90;;;;;;10173839;28;20052;-66
2023/03/03 12:42:20;;;;;;;26.77;14.10;;;9.30;99.90;;;;;;10165590;28;20071;-64
2023/03/03 12:47:37;;;;;;;29.25;13.95;;;9.50;99.90;;;;;;10187434;28;20390;-65
2023/03/03 12:52:39;;;;;;;;;;;9.90;99.80;;;;;;10176888;28;20068;-67
2023/03/03 12:57:41;;;;;;;24.52;12.05;;;9.90;99.50;;;;;;10161833;28;20277;-66
2023/03/03 13:02:44;;;;;;;25.25;14.63;;;10.40;99.80;;;;;;10169416;28;20459;-68
2023/03/03 13:07:44;;;;;;;27.55;15.45;;;10.60;99.80;;;;;;10158437;28;20087;-68
2023/03/03 13:12:38;;;;;;;32.90;17.63;;;11.10;99.70;;;;;;10145193;28;20574;-66
2023/03/03 13:17:46;;;;;;;24.38;14.20;;;11.40;99.80;;;;;;10147473;28;20024;-65
2023/03/03 13:22:59;;;;;;;30.25;16.17;;;11.60;99.90;;;;;;10162410;28;20150;-68
2023/03/03 13:27:54;;;;;;;26.48;13.65;;;12.10;99.90;;;;;;10176814;28;20435;-66
2023/03/03 13:33:11;;;;;;;23.40;12.73;;;12.20;99.90;;;;;;10183732;28;20041;-64
2023/03/03 13:38:05;;;;;;;31.02;15.57;;;12.40;99.10;;;;;;10181659;28;20051;-64
2023/03/03 13:43:25;;;;;;;25.67;15.38;;;12.80;99.90;;;;;;10171444;28;20376;-66
2023/03/03 13:48:34;;;;;;;27.13;15.45;;;13.20;99.90;;;;;;10184156;28;20032;-66
2023/03/03 13:54:03;;;;;;;24.45;14.52;;;13.10;99.70;;;;;;10183866;28;20035;-64
2023/03/03 13:59:09;;;;;;;26.35;15.68;;;13.40;98.80;;;;;;10172483;28;20037;-65
2023/03/03 14:04:24;;;;;;;21.83;13.13;;;13.80;99.40;;;;;;10166409;28;20557;-64
2023/03/03 14:09:44;;;;;;;21.33;13.38;;;14.60;98.40;;;;;;10153574;28;20103;-64
2023/03/03 14:14:43;;;;;;;21.67;13.80;;;14.50;96.50;;;;;;10140747;28;20040;-63
2023/03/03 14:19:39;;;;;;;25.13;14.77;;;14.80;97.20;;;;;;10163232;28;20067;-65
2023/03/03 14:24:30;;;;;;;24.42;14.75;;;15.00;96.70;;;;;;10181429;28;20546;-66
2023/03/03 14:29:28;;;;;;;24.45;14.60;;;16.20;96.00;;;;;;10182291;28;20482;-66
2023/03/03 14:34:39;;;;;;;23.45;13.93;;;16.60;95.20;;;;;;10180478;28;20135;-65
2023/03/03 14:39:38;;;;;;;22.38;14.23;;;17.40;94.10;;;;;;10175651;28;20032;-65
2023/03/03 14:45:00;;;;;;;21.63;12.93;;;18.00;93.00;;;;;;10140945;28;20387;-65
2023/03/03 14:49:53;;;;;;;22.02;13.43;;;18.10;91.70;;;;;;10171506;28;20040;-66
2023/03/03 14:54:48;;;;;;;21.42;13.90;;;18.50;90.50;;;;;;10179994;28;20438;-66
2023/03/03 14:59:39;;;;;;;21.00;13.07;;;19.00;89.40;;;;;;10163795;28;20040;-65
2023/03/03 15:04:30;;;;;;;22.10;13.27;;;19.50;87.20;;;;;;10164502;28;20362;-64
2023/03/03 15:09:23;;;;;;;19.83;12.40;;;19.00;85.50;;;;;;10140968;28;20021;-65
2023/03/03 15:14:17;;;;;;;23.10;13.65;;;18.90;83.90;;;;;;10149068;28;20054;-65
2023/03/03 15:19:44;;;;;;;21.38;12.60;;;19.00;82.60;;;;;;10152788;28;20040;-65
2023/03/03 15:24:42;;;;;;;21.23;12.88;;;18.90;80.30;;;;;;10140062;28;20024;-66
2023/03/03 15:30:21;;;;;;;19.33;13.25;;;19.20;80.00;;;;;;10140289;28;20021;-67
2023/03/03 15:35:23;;;;;;;19.98;12.60;;;19.10;78.20;;;;;;10153522;28;20462;-66
2023/03/03 15:40:27;;;;;;;19.02;12.73;;;19.10;78.00;;;;;;10167511;28;20028;-66
2023/03/03 15:45:43;;;;;;;22.88;13.15;;;19.20;76.80;;;;;;10139421;28;20251;-66
2023/03/03 15:50:42;;;;;;;23.48;13.38;;;18.90;76.00;;;;;;10138002;28;20394;-67
2023/03/03 15:55:49;;;;;;;22.08;12.18;;;18.90;75.80;;;;;;10139723;28;20066;-67
2023/03/03 16:01:09;;;;;;;20.60;13.05;;;18.60;74.70;;;;;;10153154;28;20111;-65
2023/03/03 16:06:26;;;;;;;24.75;13.48;;;18.30;75.10;;;;;;10169344;28;20025;-65
2023/03/03 16:11:42;;;;;;;20.38;11.70;;;18.00;74.10;;;;;;10169585;28;20575;-66
2023/03/03 16:16:45;;;;;;;22.38;11.98;;;17.60;74.90;;;;;;10151786;28;20028;-67
2023/03/03 16:21:57;;;;;;;24.98;13.38;;;18.00;74.30;;;;;;10163262;28;20503;-65
2023/03/03 16:26:59;;;;;;;25.33;13.80;;;17.70;74.30;;;;;;10146498;28;20115;-64
2023/03/03 16:32:00;;;;;;;20.95;11.80;;;17.00;74.40;;;;;;10146624;28;20020;-65
2023/03/03 16:37:06;;;;;;;23.83;13.32;;;13.90;77.40;;;;;;10145994;28;20044;-66
2023/03/03 16:42:06;;;;;;;28.92;14.02;;;12.70;78.70;;;;;;10169274;28;20067;-66
2023/03/03 16:47:28;;;;;;;24.33;12.18;;;12.00;79.10;;;;;;10145876;28;20117;-66
2023/03/03 16:52:28;;;;;;;26.17;12.10;;;11.60;79.40;;;;;;10145576;28;20032;-64
2023/03/03 16:57:31;;;;;;;26.35;11.73;;;11.20;80.00;;;;;;10160244;28;20398;-65
2023/03/03 17:02:48;;;;;;;22.58;11.00;;;10.90;80.60;;;;;;10155383;28;20103;-66
2023/03/03 17:07:49;;;;;;;27.25;14.18;;;10.70;81.30;;;;;;10169021;28;20040;-64
2023/03/03 17:12:59;;;;;;;26.95;12.35;;;10.50;81.80;;;;;;10145557;28;20017;-65
2023/03/03 17:18:13;;;;;;;26.08;12.10;;;10.30;82.20;;;;;;10148039;28;20027;-67
2023/03/03 17:23:18;;;;;;;20.58;11.23;;;10.30;82.10;;;;;;10144964;28;20439;-66
2023/03/03 17:28:22;;;;;;;25.95;12.93;;;10.20;82.40;;;;;;10144212;28;20107;-66
2023/03/03 17:33:16;;;;;;;23.98;11.80;;;10.10;82.60;;;;;;10166422;28;20024;-65
2023/03/03 17:38:34;;;;;;;23.83;11.75;;;10.00;83.10;;;;;;10144700;28;20228;-66
2023/03/03 17:43:59;;;;;;;28.42;12.02;;;10.00;83.40;;;;;;10166531;28;20566;-65
2023/03/03 17:49:07;;;;;;;27.00;12.45;;;9.90;83.60;;;;;;10143594;28;20012;-66
2023/03/03 17:54:03;;;;;;;25.42;11.68;;;9.70;84.10;;;;;;10142976;28;20016;-67
2023/03/03 17:59:06;;;;;;;25.90;12.35;;;9.70;84.30;;;;;;10160217;28;20059;-66
2023/03/03 18:04:15;;;;;;;26.75;12.43;;;9.60;84.90;;;;;;10164509;28;20028;-64
2023/03/03 18:09:17;;;;;;;26.85;12.35;;;9.60;85.40;;;;;;10155281;28;20031;-66
2023/03/03 18:14:20;;;;;;;26.45;11.95;;;9.50;85.50;;;;;;10142800;28;20052;-66
2023/03/03 18:19:25;;;;;;;27.80;12.05;;;9.50;85.50;;;;;;10144653;28;20032;-66
2023/03/03 18:24:39;;;;;;;28.63;11.43;;;9.50;86.00;;;;;;10142295;28;20502;-65
2023/03/03 18:29:32;;;;;;;29.27;13.57;;;9.40;86.30;;;;;;10169293;28;20021;-65
2023/03/03 18:34:40;;;;;;;23.95;13.13;;;9.30;86.60;;;;;;10141351;28;20571;-66
2023/03/03 18:40:12;;;;;;;29.65;13.30;;;9.30;87.30;;;;;;10149072;28;20028;-66
2023/03/03 18:45:30;;;;;;;24.50;12.30;;;9.20;87.70;;;;;;10140339;28;20029;-64
2023/03/03 18:50:33;;;;;;;32.65;12.98;;;9.20;88.10;;;;;;10141961;28;20028;-64
2023/03/03 18:55:25;;;;;;;29.70;12.80;;;9.00;88.80;;;;;;10141133;28;20020;-66
2023/03/03 19:00:26;;;;;;;30.27;14.43;;;9.00;89.20;;;;;;10168456;28;20083;-64
2023/03/03 19:05:23;;;;;;;26.55;13.02;;;8.90;89.70;;;;;;10146536;28;20035;-64
2023/03/03 19:10:20;;;;;;;30.60;14.18;;;8.80;89.90;;;;;;10140577;28;20406;-65
2023/03/03 19:15:34;;;;;;;26.85;12.68;;;8.80;90.00;;;;;;10140495;28;20032;-66
2023/03/03 19:20:35;;;;;;;28.52;11.80;;;8.70;90.30;;;;;;10143353;28;20029;-66
2023/03/03 19:25:28;;;;;;;28.33;12.25;;;8.70;90.30;;;;;;10159370;28;20034;-66
2023/03/03 19:30:46;;;;;;;23.35;11.40;;;8.60;90.40;;;;;;10167922;28;20483;-65
2023/03/03 19:35:59;;;;;;;30.92;12.23;;;8.50;90.50;;;;;;10153220;28;20049;-68
2023/03/03 19:41:11;;;;;;;20.52;11.05;;;8.50;90.50;;;;;;10151034;28;20044;-66
2023/03/03 19:46:01;;;;;;;25.05;11.55;;;8.40;90.70;;;;;;10175073;28;20032;-66
2023/03/03 19:51:07;;;;;;;25.92;12.18;;;8.30;90.90;;;;;;10183166;28;20020;-66
2023/03/03 19:56:09;;;;;;;25.63;11.23;;;8.20;91.10;;;;;;10166844;28;20114;-64
2023/03/03 20:01:10;;;;;;;21.35;9.85;;;8.10;91.20;;;;;;10152470;28;20454;-67
2023/03/03 20:06:10;;;;;;;22.23;9.73;;;8.10;91.20;;;;;;10166202;28;20024;-65
2023/03/03 20:11:13;;;;;;;27.23;10.88;;;8.00;91.20;;;;;;10139905;28;20086;-65
2023/03/03 20:16:23;;;;;;;21.55;10.23;;;8.00;91.40;;;;;;10167647;28;20016;-66
2023/03/03 20:21:33;;;;;;;19.85;9.65;;;7.90;91.50;;;;;;10148368;28;20263;-66
2023/03/03 20:26:37;;;;;;;23.25;9.20;;;7.90;91.50;;;;;;10145436;28;20028;-69
2023/03/03 20:31:40;;;;;;;20.25;8.63;;;7.80;91.60;;;;;;10178042;28;20085;-65
2023/03/03 20:36:45;;;;;;;18.02;8.95;;;7.80;91.70;;;;;;10194575;28;20097;-66
2023/03/03 20:41:53;;;;;;;18.10;9.60;;;7.70;91.70;;;;;;10156289;28;20071;-65
2023/03/03 20:47:05;;;;;;;21.05;8.52;;;7.70;92.10;;;;;;10165899;28;20020;-65
2023/03/03 20:52:02;;;;;;;18.70;8.13;;;7.60;91.80;;;;;;10178972;28;20463;-67
2023/03/03 20:57:35;;;;;;;22.58;10.65;;;7.60;91.90;;;;;;10166359;28;20019;-66
2023/03/03 21:02:44;;;;;;;19.02;10.13;;;7.50;92.00;;;;;;10156795;28;20046;-67
2023/03/03 21:07:36;;;;;;;18.08;8.85;;;7.50;92.10;;;;;;10176988;28;20486;-66
2023/03/03 21:12:29;;;;;;;15.90;7.28;;;7.40;92.20;;;;;;10185713;28;20032;-66
2023/03/03 21:17:28;;;;;;;17.27;9.00;;;7.30;92.30;;;;;;10174420;28;20024;-67
2023/03/03 21:22:19;;;;;;;17.10;9.20;;;7.30;92.30;;;;;;10175156;28;20513;-67
2023/03/03 21:27:31;;;;;;;18.83;7.95;;;7.20;92.40;;;;;;10186000;28;20024;-65
2023/03/03 21:32:39;;;;;;;17.40;7.30;;;7.20;92.50;;;;;;10185825;28;20024;-66
2023/03/03 21:37:49;;;;;;;22.55;8.63;;;7.10;92.90;;;;;;10183916;28;20063;-65
2023/03/03 21:42:41;;;;;;;16.55;8.65;;;7.10;92.70;;;;;;10183918;28;20036;-65
2023/03/03 21:47:32;;;;;;;14.57;7.80;;;7.00;92.70;;;;;;10102370;23;20415;-61
2023/03/03 21:52:22;;;;;;;14.15;7.85;;;7.00;92.80;;;;;;10103081;28;20017;-59
2023/03/03 21:57:13;;;;;;;18.50;9.35;;;6.90;92.90;;;;;;10103447;28;20118;-60
2023/03/03 22:02:04;;;;;;;20.05;8.20;;;6.90;92.90;;;;;;10102529;28;20032;-61
2023/03/03 22:06:56;;;;;;;23.30;9.68;;;6.90;92.80;;;;;;10118085;28;20017;-61
2023/03/03 22:11:46;;;;;;;23.23;9.57;;;6.70;93.00;;;;;;10117888;28;20060;-61
2023/03/03 22:16:37;;;;;;;19.25;8.98;;;6.60;93.00;;;;;;10102011;28;20471;-60
2023/03/03 22:21:28;;;;;;;21.05;7.43;;;6.60;93.10;;;;;;10100519;28;20029;-61
2023/03/03 22:26:20;;;;;;;19.23;9.27;;;6.50;93.70;;;;;;10102118;28;20033;-60
2023/03/03 22:31:11;;;;;;;16.33;7.13;;;6.50;93.60;;;;;;10102270;28;20082;-59
2023/03/03 22:36:01;;;;;;;15.68;7.50;;;6.60;93.70;;;;;;10101203;28;20119;-60
2023/03/03 22:40:54;;;;;;;20.15;8.48;;;6.40;94.00;;;;;;10101621;28;20044;-59
2023/03/03 22:45:45;;;;;;;20.83;8.45;;;6.40;94.10;;;;;;10123646;28;20040;-60
2023/03/03 22:50:38;;;;;;;17.48;6.82;;;6.30;94.10;;;;;;10141232;28;20482;-60
2023/03/03 22:55:28;;;;;;;20.98;7.97;;;6.30;94.20;;;;;;10140746;28;20025;-59
2023/03/03 23:00:20;;;;;;;14.60;5.75;;;6.20;94.30;;;;;;10140632;28;20549;-62
2023/03/03 23:05:10;;;;;;;18.02;7.72;;;6.10;94.50;;;;;;10140267;28;20081;-60
2023/03/03 23:10:02;;;;;;;15.73;6.10;;;6.20;94.50;;;;;;10140157;28;20032;-61
2023/03/03 23:14:52;;;;;;;17.52;8.30;;;6.10;94.60;;;;;;10139162;28;20036;-60
2023/03/03 23:19:45;;;;;;;15.77;6.97;;;6.00;94.70;;;;;;10139454;28;20031;-60
2023/03/03 23:24:35;;;;;;;20.60;7.18;;;6.00;94.80;;;;;;10140116;28;20028;-61
2023/03/03 23:29:26;;;;;;;18.00;7.40;;;5.90;94.80;;;;;;10121996;28;20035;-61
2023/03/03 23:34:17;;;;;;;18.15;7.82;;;5.90;95.00;;;;;;10140569;28;20025;-62
2023/03/03 23:39:07;;;;;;;14.23;6.93;;;5.90;95.20;;;;;;10139690;28;20411;-60
2023/03/03 23:43:58;;;;;;;13.18;6.75;;;5.80;95.50;;;;;;10138985;28;20119;-60
2023/03/03 23:48:48;;;;;;;17.45;8.77;;;5.70;95.30;;;;;;10138082;28;20402;-60
2023/03/03 23:53:39;;;;;;;13.80;6.85;;;5.70;95.40;;;;;;10121596;28;20024;-61
2023/03/03 23:58:30;;;;;;;16.52;7.15;;;5.70;95.40;;;;;;10139612;28;20036;-61
